sensor_id;sensor_type;location;lat;lon;timestamp;pressure;altitude;pressure_sealevel;temperature;humidity
60871;BME280;46714;50.118;14.462;2023-01-01T00:02:03;99138.75;;;10.27;87.40
60871;BME280;46714;50.118;14.462;2023-01-01T00:04:28;99151.13;;;10.30;87.29
60871;BME280;46714;50.118;14.462;2023-01-01T00:06:54;99148.41;;;10.30;87.90
60871;BME280;46714;50.118;14.462;2023-01-01T00:09:19;99152.19;;;10.29;87.97
60871;BME280;46714;50.118;14.462;2023-01-01T00:12:03;99140.41;;;10.28;87.90
60871;BME280;46714;50.118;14.462;2023-01-01T00:14:29;99145.69;;;10.30;87.39
60871;BME280;46714;50.118;14.462;2023-01-01T00:16:54;99153.84;;;10.30;87.42
60871;BME280;46714;50.118;14.462;2023-01-01T00:19:20;99159.09;;;10.31;87.18
60871;BME280;46714;50.118;14.462;2023-01-01T00:21:45;99154.47;;;10.32;86.78
60871;BME280;46714;50.118;14.462;2023-01-01T00:24:11;99159.72;;;10.33;86.61
60871;BME280;46714;50.118;14.462;2023-01-01T00:26:36;99147.75;;;10.34;87.22
60871;BME280;46714;50.118;14.462;2023-01-01T00:29:02;99152.16;;;10.35;86.64
60871;BME280;46714;50.118;14.462;2023-01-01T00:31:28;99148.38;;;10.36;86.77
60871;BME280;46714;50.118;14.462;2023-01-01T00:33:54;99157.59;;;10.35;86.92
60871;BME280;46714;50.118;14.462;2023-01-01T00:36:20;99150.47;;;10.34;86.81
60871;BME280;46714;50.118;14.462;2023-01-01T00:38:47;99135.44;;;10.32;86.75
60871;BME280;46714;50.118;14.462;2023-01-01T00:41:13;99140.88;;;10.32;87.04
60871;BME280;46714;50.118;14.462;2023-01-01T00:43:40;99137.53;;;10.30;87.38
60871;BME280;46714;50.118;14.462;2023-01-01T00:46:06;99140.25;;;10.30;87.29
60871;BME280;46714;50.118;14.462;2023-01-01T00:48:32;99143.78;;;10.30;87.33
60871;BME280;46714;50.118;14.462;2023-01-01T00:50:57;99141.06;;;10.30;87.25
60871;BME280;46714;50.118;14.462;2023-01-01T00:53:23;99145.84;;;10.28;87.76
60871;BME280;46714;50.118;14.462;2023-01-01T00:55:49;99147.34;;;10.24;87.42
60871;BME280;46714;50.118;14.462;2023-01-01T00:58:16;99150.28;;;10.22;87.42
60871;BME280;46714;50.118;14.462;2023-01-01T01:00:42;99155.09;;;10.20;87.66
60871;BME280;46714;50.118;14.462;2023-01-01T01:03:11;99158.00;;;10.19;86.92
60871;BME280;46714;50.118;14.462;2023-01-01T01:06:13;99157.19;;;10.18;87.87
60871;BME280;46714;50.118;14.462;2023-01-01T01:08:40;99157.38;;;10.17;87.01
60871;BME280;46714;50.118;14.462;2023-01-01T01:11:08;99167.69;;;10.15;87.88
60871;BME280;46714;50.118;14.462;2023-01-01T01:13:38;99158.88;;;10.13;87.90
60871;BME280;46714;50.118;14.462;2023-01-01T01:16:11;99150.09;;;10.11;87.18
60871;BME280;46714;50.118;14.462;2023-01-01T01:18:41;99159.28;;;10.10;87.58
60871;BME280;46714;50.118;14.462;2023-01-01T01:21:07;99163.91;;;10.09;87.62
60871;BME280;46714;50.118;14.462;2023-01-01T01:23:33;99167.88;;;10.06;87.43
60871;BME280;46714;50.118;14.462;2023-01-01T01:26:05;99174.34;;;10.05;87.54
60871;BME280;46714;50.118;14.462;2023-01-01T01:28:34;99180.84;;;10.04;87.57
60871;BME280;46714;50.118;14.462;2023-01-01T01:30:59;99174.78;;;10.02;88.15
60871;BME280;46714;50.118;14.462;2023-01-01T01:33:25;99175.84;;;10.01;87.73
60871;BME280;46714;50.118;14.462;2023-01-01T01:35:50;99176.88;;;10.00;87.80
60871;BME280;46714;50.118;14.462;2023-01-01T01:38:16;99171.44;;;10.00;88.26
60871;BME280;46714;50.118;14.462;2023-01-01T01:40:41;99175.22;;;9.99;88.06
60871;BME280;46714;50.118;14.462;2023-01-01T01:43:19;99182.31;;;10.00;87.64
60871;BME280;46714;50.118;14.462;2023-01-01T01:45:47;99181.91;;;9.97;88.02
60871;BME280;46714;50.118;14.462;2023-01-01T01:48:13;99188.63;;;9.94;87.80
60871;BME280;46714;50.118;14.462;2023-01-01T01:50:39;99182.31;;;9.94;88.05
60871;BME280;46714;50.118;14.462;2023-01-01T01:53:19;99188.63;;;9.94;88.52
60871;BME280;46714;50.118;14.462;2023-01-01T01:56:00;99193.44;;;9.92;88.19
60871;BME280;46714;50.118;14.462;2023-01-01T01:58:30;99188.81;;;9.93;88.16
60871;BME280;46714;50.118;14.462;2023-01-01T02:00:56;99181.91;;;9.90;88.47
60871;BME280;46714;50.118;14.462;2023-01-01T02:03:22;99193.19;;;9.87;87.55
60871;BME280;46714;50.118;14.462;2023-01-01T02:05:59;99198.88;;;9.85;87.97
60871;BME280;46714;50.118;14.462;2023-01-01T02:08:25;99200.31;;;9.81;88.70
60871;BME280;46714;50.118;14.462;2023-01-01T02:10:51;99196.13;;;9.79;87.77
60871;BME280;46714;50.118;14.462;2023-01-01T02:13:17;99207.44;;;9.76;88.52
60871;BME280;46714;50.118;14.462;2023-01-01T02:18:15;99204.91;;;9.68;87.69
60871;BME280;46714;50.118;14.462;2023-01-01T02:26:27;99214.94;;;9.60;88.16
60871;BME280;46714;50.118;14.462;2023-01-01T02:29:15;99225.38;;;9.57;87.71
60871;BME280;46714;50.118;14.462;2023-01-01T02:31:53;99219.53;;;9.53;88.18
60871;BME280;46714;50.118;14.462;2023-01-01T02:34:56;99218.91;;;9.51;87.76
60871;BME280;46714;50.118;14.462;2023-01-01T02:37:53;99208.66;;;9.47;88.02
60871;BME280;46714;50.118;14.462;2023-01-01T02:40:23;99207.81;;;9.46;87.58
60871;BME280;46714;50.118;14.462;2023-01-01T02:42:51;99204.47;;;9.44;87.38
60871;BME280;46714;50.118;14.462;2023-01-01T02:45:19;99209.91;;;9.44;87.74
60871;BME280;46714;50.118;14.462;2023-01-01T02:47:45;99205.72;;;9.41;88.21
60871;BME280;46714;50.118;14.462;2023-01-01T02:50:12;99204.22;;;9.39;87.91
60871;BME280;46714;50.118;14.462;2023-01-01T02:58:23;99213.44;;;9.31;87.62
60871;BME280;46714;50.118;14.462;2023-01-01T03:01:17;99210.91;;;9.30;87.92
60871;BME280;46714;50.118;14.462;2023-01-01T03:09:11;99223.63;;;9.22;88.30
60871;BME280;46714;50.118;14.462;2023-01-01T03:19:53;99210.91;;;9.16;88.54
60871;BME280;46714;50.118;14.462;2023-01-01T03:22:24;99209.41;;;9.14;87.87
60871;BME280;46714;50.118;14.462;2023-01-01T03:24:59;99206.06;;;9.12;88.38
60871;BME280;46714;50.118;14.462;2023-01-01T03:27:32;99207.28;;;9.09;88.97
60871;BME280;46714;50.118;14.462;2023-01-01T03:30:04;99208.34;;;9.08;89.41
60871;BME280;46714;50.118;14.462;2023-01-01T03:32:34;99214.84;;;9.07;89.00
60871;BME280;46714;50.118;14.462;2023-01-01T03:35:24;99217.75;;;9.06;89.63
60871;BME280;46714;50.118;14.462;2023-01-01T03:37:54;99212.94;;;9.01;89.00
60871;BME280;46714;50.118;14.462;2023-01-01T03:40:24;99215.00;;;8.99;89.77
60871;BME280;46714;50.118;14.462;2023-01-01T03:42:56;99208.28;;;8.95;90.08
60871;BME280;46714;50.118;14.462;2023-01-01T03:45:30;99211.44;;;8.92;89.29
60871;BME280;46714;50.118;14.462;2023-01-01T03:48:00;99209.97;;;8.89;89.73
60871;BME280;46714;50.118;14.462;2023-01-01T03:50:39;99213.91;;;8.87;89.74
60871;BME280;46714;50.118;14.462;2023-01-01T03:53:23;99217.25;;;8.82;90.28
60871;BME280;46714;50.118;14.462;2023-01-01T03:56:10;99223.28;;;8.77;90.07
60871;BME280;46714;50.118;14.462;2023-01-01T03:58:39;99226.19;;;8.76;89.53
60871;BME280;46714;50.118;14.462;2023-01-01T04:01:11;99228.25;;;8.74;89.72
60871;BME280;46714;50.118;14.462;2023-01-01T04:03:42;99221.34;;;8.71;90.28
60871;BME280;46714;50.118;14.462;2023-01-01T04:06:08;99226.16;;;8.69;90.32
60871;BME280;46714;50.118;14.462;2023-01-01T04:08:35;99220.09;;;8.67;89.40
60871;BME280;46714;50.118;14.462;2023-01-01T04:11:02;99234.91;;;8.65;90.21
60871;BME280;46714;50.118;14.462;2023-01-01T04:13:52;99234.06;;;8.64;89.76
60871;BME280;46714;50.118;14.462;2023-01-01T04:16:18;99235.09;;;8.63;89.98
60871;BME280;46714;50.118;14.462;2023-01-01T04:18:43;99222.97;;;8.59;90.01
60871;BME280;46714;50.118;14.462;2023-01-01T04:21:08;99227.75;;;8.57;90.68
60871;BME280;46714;50.118;14.462;2023-01-01T04:23:36;99235.03;;;8.56;89.83
60871;BME280;46714;50.118;14.462;2023-01-01T04:26:01;99224.59;;;8.53;90.77
60871;BME280;46714;50.118;14.462;2023-01-01T04:28:26;99232.31;;;8.56;90.84
60871;BME280;46714;50.118;14.462;2023-01-01T04:30:52;99224.00;;;8.58;90.19
60871;BME280;46714;50.118;14.462;2023-01-01T04:33:17;99222.56;;;8.62;89.89
60871;BME280;46714;50.118;14.462;2023-01-01T04:35:42;99213.00;;;8.66;90.56
60871;BME280;46714;50.118;14.462;2023-01-01T04:38:11;99213.03;;;8.73;89.67
60871;BME280;46714;50.118;14.462;2023-01-01T04:40:37;99222.00;;;8.73;89.37
60871;BME280;46714;50.118;14.462;2023-01-01T04:43:03;99225.53;;;8.74;89.37
60871;BME280;46714;50.118;14.462;2023-01-01T04:45:28;99232.63;;;8.75;89.45
60871;BME280;46714;50.118;14.462;2023-01-01T04:47:53;99241.00;;;8.73;89.74
60871;BME280;46714;50.118;14.462;2023-01-01T04:50:18;99234.75;;;8.73;89.43
60871;BME280;46714;50.118;14.462;2023-01-01T04:52:44;99228.44;;;8.72;88.86
60871;BME280;46714;50.118;14.462;2023-01-01T04:55:09;99225.53;;;8.74;88.77
60871;BME280;46714;50.118;14.462;2023-01-01T04:57:35;99226.78;;;8.71;89.68
60871;BME280;46714;50.118;14.462;2023-01-01T05:00:00;99221.78;;;8.68;88.90
60871;BME280;46714;50.118;14.462;2023-01-01T05:02:26;99229.66;;;8.63;90.06
60871;BME280;46714;50.118;14.462;2023-01-01T05:04:51;99228.41;;;8.59;89.49
60871;BME280;46714;50.118;14.462;2023-01-01T05:07:16;99233.56;;;8.54;89.69
60871;BME280;46714;50.118;14.462;2023-01-01T05:09:42;99233.97;;;8.51;90.04
60871;BME280;46714;50.118;14.462;2023-01-01T05:12:07;99233.53;;;8.47;90.08
60871;BME280;46714;50.118;14.462;2023-01-01T05:14:32;99228.31;;;8.46;90.14
60871;BME280;46714;50.118;14.462;2023-01-01T05:16:58;99240.78;;;8.40;90.20
60871;BME280;46714;50.118;14.462;2023-01-01T05:19:23;99240.34;;;8.36;89.56
60871;BME280;46714;50.118;14.462;2023-01-01T05:21:49;99247.84;;;8.34;90.51
60871;BME280;46714;50.118;14.462;2023-01-01T05:24:14;99241.75;;;8.32;89.92
60871;BME280;46714;50.118;14.462;2023-01-01T05:26:40;99243.84;;;8.30;90.50
60871;BME280;46714;50.118;14.462;2023-01-01T05:29:07;99252.78;;;8.31;90.06
60871;BME280;46714;50.118;14.462;2023-01-01T05:31:33;99253.03;;;8.29;90.68
60871;BME280;46714;50.118;14.462;2023-01-01T05:34:00;99249.66;;;8.27;89.78
60871;BME280;46714;50.118;14.462;2023-01-01T05:36:27;99250.03;;;8.24;90.56
60871;BME280;46714;50.118;14.462;2023-01-01T05:38:55;99251.72;;;8.25;90.79
60871;BME280;46714;50.118;14.462;2023-01-01T05:41:22;99258.16;;;8.24;90.71
60871;BME280;46714;50.118;14.462;2023-01-01T05:43:48;99261.94;;;8.23;90.91
60871;BME280;46714;50.118;14.462;2023-01-01T05:46:16;99258.56;;;8.21;91.27
60871;BME280;46714;50.118;14.462;2023-01-01T05:48:44;99271.31;;;8.21;90.97
60871;BME280;46714;50.118;14.462;2023-01-01T05:51:11;99274.84;;;8.21;91.24
60871;BME280;46714;50.118;14.462;2023-01-01T05:53:41;99270.66;;;8.18;90.41
60871;BME280;46714;50.118;14.462;2023-01-01T05:56:08;99270.00;;;8.16;90.51
60871;BME280;46714;50.118;14.462;2023-01-01T05:58:34;99273.97;;;8.14;91.05
60871;BME280;46714;50.118;14.462;2023-01-01T06:03:37;99278.69;;;8.05;90.19
60871;BME280;46714;50.118;14.462;2023-01-01T06:06:04;99278.88;;;8.04;91.13
60871;BME280;46714;50.118;14.462;2023-01-01T06:08:30;99276.56;;;8.01;90.85
60871;BME280;46714;50.118;14.462;2023-01-01T06:10:59;99283.41;;;7.96;91.16
60871;BME280;46714;50.118;14.462;2023-01-01T06:13:25;99283.78;;;7.93;91.12
60871;BME280;46714;50.118;14.462;2023-01-01T06:15:57;99284.19;;;7.90;91.37
60871;BME280;46714;50.118;14.462;2023-01-01T06:18:24;99287.09;;;7.89;91.42
60871;BME280;46714;50.118;14.462;2023-01-01T06:20:51;99287.50;;;7.86;91.60
60871;BME280;46714;50.118;14.462;2023-01-01T06:23:16;99291.41;;;7.83;92.02
60871;BME280;46714;50.118;14.462;2023-01-01T06:25:42;99292.44;;;7.82;92.20
60871;BME280;46714;50.118;14.462;2023-01-01T06:28:08;99294.50;;;7.80;92.39
60871;BME280;46714;50.118;14.462;2023-01-01T06:30:33;99294.50;;;7.80;92.44
60871;BME280;46714;50.118;14.462;2023-01-01T06:32:59;99293.66;;;7.80;92.28
60871;BME280;46714;50.118;14.462;2023-01-01T06:35:25;99299.94;;;7.80;92.11
60871;BME280;46714;50.118;14.462;2023-01-01T06:37:51;99300.56;;;7.82;92.60
60871;BME280;46714;50.118;14.462;2023-01-01T06:40:17;99304.34;;;7.81;92.03
60871;BME280;46714;50.118;14.462;2023-01-01T06:42:42;99311.59;;;7.81;92.35
60871;BME280;46714;50.118;14.462;2023-01-01T06:45:08;99314.31;;;7.81;92.22
60871;BME280;46714;50.118;14.462;2023-01-01T06:47:34;99315.16;;;7.81;92.18
60871;BME280;46714;50.118;14.462;2023-01-01T06:50:00;99321.22;;;7.83;91.84
60871;BME280;46714;50.118;14.462;2023-01-01T06:52:26;99323.91;;;7.83;92.00
60871;BME280;46714;50.118;14.462;2023-01-01T06:54:52;99330.38;;;7.82;92.03
60871;BME280;46714;50.118;14.462;2023-01-01T06:57:17;99328.31;;;7.84;92.37
60871;BME280;46714;50.118;14.462;2023-01-01T06:59:43;99321.84;;;7.85;92.32
60871;BME280;46714;50.118;14.462;2023-01-01T07:02:11;99326.44;;;7.85;91.99
60871;BME280;46714;50.118;14.462;2023-01-01T07:04:37;99340.81;;;7.85;92.12
60871;BME280;46714;50.118;14.462;2023-01-01T07:07:02;99346.91;;;7.87;91.95
60871;BME280;46714;50.118;14.462;2023-01-01T07:09:28;99346.25;;;7.85;91.41
60871;BME280;46714;50.118;14.462;2023-01-01T07:11:53;99339.16;;;7.84;91.16
60871;BME280;46714;50.118;14.462;2023-01-01T07:14:18;99352.25;;;7.81;91.44
60871;BME280;46714;50.118;14.462;2023-01-01T07:16:44;99348.69;;;7.80;91.49
60871;BME280;46714;50.118;14.462;2023-01-01T07:19:09;99343.47;;;7.79;91.89
60871;BME280;46714;50.118;14.462;2023-01-01T07:21:44;99345.59;;;7.83;91.38
60871;BME280;46714;50.118;14.462;2023-01-01T07:24:12;99344.59;;;7.84;91.88
60871;BME280;46714;50.118;14.462;2023-01-01T07:26:39;99339.88;;;7.93;91.14
60871;BME280;46714;50.118;14.462;2023-01-01T07:29:05;99341.38;;;7.95;91.21
60871;BME280;46714;50.118;14.462;2023-01-01T07:31:32;99348.91;;;8.00;91.75
60871;BME280;46714;50.118;14.462;2023-01-01T07:34:02;99347.94;;;8.08;91.28
60871;BME280;46714;50.118;14.462;2023-01-01T07:36:28;99354.00;;;8.10;90.97
60871;BME280;46714;50.118;14.462;2023-01-01T07:38:53;99359.25;;;8.11;91.14
60871;BME280;46714;50.118;14.462;2023-01-01T07:41:18;99374.47;;;8.12;91.03
60871;BME280;46714;50.118;14.462;2023-01-01T07:43:44;99370.75;;;8.13;91.22
60871;BME280;46714;50.118;14.462;2023-01-01T07:46:11;99362.78;;;8.12;90.69
60871;BME280;46714;50.118;14.462;2023-01-01T07:48:37;99376.16;;;8.13;90.53
60871;BME280;46714;50.118;14.462;2023-01-01T07:51:02;99377.00;;;8.14;91.67
60871;BME280;46714;50.118;14.462;2023-01-01T07:53:27;99382.59;;;8.12;90.79
60871;BME280;46714;50.118;14.462;2023-01-01T07:55:53;99392.44;;;8.13;91.24
60871;BME280;46714;50.118;14.462;2023-01-01T07:58:18;99392.03;;;8.16;90.72
60871;BME280;46714;50.118;14.462;2023-01-01T08:00:44;99401.00;;;8.17;90.91
60871;BME280;46714;50.118;14.462;2023-01-01T08:03:11;99402.22;;;8.14;90.27
60871;BME280;46714;50.118;14.462;2023-01-01T08:05:37;99406.16;;;8.12;90.77
60871;BME280;46714;50.118;14.462;2023-01-01T08:08:02;99404.50;;;8.11;91.15
60871;BME280;46714;50.118;14.462;2023-01-01T08:10:28;99410.09;;;8.09;90.40
60871;BME280;46714;50.118;14.462;2023-01-01T08:12:58;99409.72;;;8.12;91.45
60871;BME280;46714;50.118;14.462;2023-01-01T08:15:28;99410.84;;;8.18;91.15
60871;BME280;46714;50.118;14.462;2023-01-01T08:17:57;99403.84;;;8.30;91.90
60871;BME280;46714;50.118;14.462;2023-01-01T08:20:27;99404.50;;;8.54;90.61
60871;BME280;46714;50.118;14.462;2023-01-01T08:22:54;99404.59;;;8.67;89.79
60871;BME280;46714;50.118;14.462;2023-01-01T08:25:19;99402.66;;;8.83;89.94
60871;BME280;46714;50.118;14.462;2023-01-01T08:27:45;99411.03;;;8.88;88.97
60871;BME280;46714;50.118;14.462;2023-01-01T08:30:11;99408.97;;;8.90;89.62
60871;BME280;46714;50.118;14.462;2023-01-01T08:32:39;99402.28;;;8.92;89.52
60871;BME280;46714;50.118;14.462;2023-01-01T08:35:04;99413.66;;;9.02;89.50
60871;BME280;46714;50.118;14.462;2023-01-01T08:37:30;99399.91;;;9.11;89.68
60871;BME280;46714;50.118;14.462;2023-01-01T08:39:55;99399.94;;;9.17;89.30
60871;BME280;46714;50.118;14.462;2023-01-01T08:42:21;99404.22;;;9.33;88.94
60871;BME280;46714;50.118;14.462;2023-01-01T08:44:46;99402.59;;;9.46;87.84
60871;BME280;46714;50.118;14.462;2023-01-01T08:47:21;99402.63;;;9.52;88.33
60871;BME280;46714;50.118;14.462;2023-01-01T08:49:48;99406.47;;;9.64;87.94
60871;BME280;46714;50.118;14.462;2023-01-01T08:52:14;99405.47;;;9.79;87.29
60871;BME280;46714;50.118;14.462;2023-01-01T08:54:40;99401.53;;;9.88;87.05
60871;BME280;46714;50.118;14.462;2023-01-01T08:57:05;99408.66;;;10.02;85.96
60871;BME280;46714;50.118;14.462;2023-01-01T08:59:31;99414.56;;;10.13;86.16
60871;BME280;46714;50.118;14.462;2023-01-01T09:01:56;99417.06;;;10.21;85.16
60871;BME280;46714;50.118;14.462;2023-01-01T09:04:21;99419.66;;;10.29;85.40
60871;BME280;46714;50.118;14.462;2023-01-01T09:06:47;99421.75;;;10.34;84.90
60871;BME280;46714;50.118;14.462;2023-01-01T09:09:12;99418.19;;;10.33;85.09
60871;BME280;46714;50.118;14.462;2023-01-01T09:11:38;99425.50;;;10.39;85.15
60871;BME280;46714;50.118;14.462;2023-01-01T09:14:03;99423.88;;;10.45;84.24
60871;BME280;46714;50.118;14.462;2023-01-01T09:16:28;99431.81;;;10.46;85.41
60871;BME280;46714;50.118;14.462;2023-01-01T09:18:54;99434.31;;;10.48;84.73
60871;BME280;46714;50.118;14.462;2023-01-01T09:21:19;99439.97;;;10.46;84.41
60871;BME280;46714;50.118;14.462;2023-01-01T09:23:45;99430.97;;;10.46;84.16
60871;BME280;46714;50.118;14.462;2023-01-01T09:26:10;99438.94;;;10.47;84.57
60871;BME280;46714;50.118;14.462;2023-01-01T09:28:36;99440.59;;;10.48;85.26
60871;BME280;46714;50.118;14.462;2023-01-01T09:31:01;99441.03;;;10.52;84.84
60871;BME280;46714;50.118;14.462;2023-01-01T09:33:29;99443.78;;;10.59;84.58
60871;BME280;46714;50.118;14.462;2023-01-01T09:35:54;99447.31;;;10.66;83.42
60871;BME280;46714;50.118;14.462;2023-01-01T09:38:47;99445.00;;;10.76;83.16
60871;BME280;46714;50.118;14.462;2023-01-01T09:44:05;99440.41;;;10.90;82.79
60871;BME280;46714;50.118;14.462;2023-01-01T09:46:43;99443.56;;;11.00;81.80
60871;BME280;46714;50.118;14.462;2023-01-01T09:49:13;99439.78;;;11.08;81.94
60871;BME280;46714;50.118;14.462;2023-01-01T09:51:45;99448.78;;;11.15;81.06
60871;BME280;46714;50.118;14.462;2023-01-01T09:57:05;99442.03;;;11.38;79.42
60871;BME280;46714;50.118;14.462;2023-01-01T09:59:34;99435.09;;;11.42;80.21
60871;BME280;46714;50.118;14.462;2023-01-01T10:02:09;99441.38;;;11.49;78.72
60871;BME280;46714;50.118;14.462;2023-01-01T10:10:07;99433.44;;;11.41;79.66
60871;BME280;46714;50.118;14.462;2023-01-01T10:15:39;99431.53;;;11.48;79.41
60871;BME280;46714;50.118;14.462;2023-01-01T10:18:22;99429.81;;;11.53;78.82
60871;BME280;46714;50.118;14.462;2023-01-01T10:23:32;99425.19;;;11.61;78.20
60871;BME280;46714;50.118;14.462;2023-01-01T10:26:06;99423.69;;;11.65;78.91
60871;BME280;46714;50.118;14.462;2023-01-01T10:31:55;99428.03;;;11.86;75.97
60871;BME280;46714;50.118;14.462;2023-01-01T10:34:25;99431.53;;;12.06;75.30
60871;BME280;46714;50.118;14.462;2023-01-01T10:36:53;99434.78;;;12.28;73.77
60871;BME280;46714;50.118;14.462;2023-01-01T10:39:21;99441.59;;;12.44;73.66
60871;BME280;46714;50.118;14.462;2023-01-01T10:41:47;99436.47;;;12.54;72.97
60871;BME280;46714;50.118;14.462;2023-01-01T10:44:46;99435.16;;;12.64;72.51
60871;BME280;46714;50.118;14.462;2023-01-01T10:47:27;99440.09;;;12.73;71.73
60871;BME280;46714;50.118;14.462;2023-01-01T10:49:56;99431.25;;;12.78;71.84
60871;BME280;46714;50.118;14.462;2023-01-01T10:52:45;99427.63;;;12.84;70.65
60871;BME280;46714;50.118;14.462;2023-01-01T10:55:20;99439.94;;;12.93;70.44
60871;BME280;46714;50.118;14.462;2023-01-01T10:57:49;99438.06;;;12.94;70.74
60871;BME280;46714;50.118;14.462;2023-01-01T11:00:25;99434.38;;;13.07;69.44
60871;BME280;46714;50.118;14.462;2023-01-01T11:03:09;99431.19;;;13.10;69.14
60871;BME280;46714;50.118;14.462;2023-01-01T11:05:37;99435.75;;;13.16;68.84
60871;BME280;46714;50.118;14.462;2023-01-01T11:08:03;99434.41;;;13.25;68.84
60871;BME280;46714;50.118;14.462;2023-01-01T11:10:39;99442.19;;;13.28;68.82
60871;BME280;46714;50.118;14.462;2023-01-01T11:13:13;99445.09;;;13.33;68.37
60871;BME280;46714;50.118;14.462;2023-01-01T11:15:43;99440.47;;;13.34;68.71
60871;BME280;46714;50.118;14.462;2023-01-01T11:18:12;99442.78;;;13.30;68.70
60871;BME280;46714;50.118;14.462;2023-01-01T11:20:58;99437.75;;;13.27;68.76
60871;BME280;46714;50.118;14.462;2023-01-01T11:23:32;99442.31;;;13.15;69.88
60871;BME280;46714;50.118;14.462;2023-01-01T11:28:29;99445.16;;;13.02;70.92
60871;BME280;46714;50.118;14.462;2023-01-01T11:36:23;99441.59;;;13.01;69.64
60871;BME280;46714;50.118;14.462;2023-01-01T11:39:12;99440.72;;;13.00;69.85
60871;BME280;46714;50.118;14.462;2023-01-01T11:41:47;99446.38;;;13.06;68.95
60871;BME280;46714;50.118;14.462;2023-01-01T11:44:34;99445.53;;;13.05;69.72
60871;BME280;46714;50.118;14.462;2023-01-01T11:47:00;99433.38;;;13.01;70.74
60871;BME280;46714;50.118;14.462;2023-01-01T11:49:28;99429.03;;;12.93;70.38
60871;BME280;46714;50.118;14.462;2023-01-01T11:51:55;99429.47;;;12.90;70.79
60871;BME280;46714;50.118;14.462;2023-01-01T11:54:29;99420.88;;;12.87;71.67
60871;BME280;46714;50.118;14.462;2023-01-01T11:57:31;99422.13;;;12.91;69.75
60871;BME280;46714;50.118;14.462;2023-01-01T12:00:00;99436.00;;;12.89;70.43
60871;BME280;46714;50.118;14.462;2023-01-01T12:02:33;99424.03;;;12.90;70.97
60871;BME280;46714;50.118;14.462;2023-01-01T12:05:08;99425.91;;;12.90;71.07
60871;BME280;46714;50.118;14.462;2023-01-01T12:07:44;99422.56;;;12.88;71.72
60871;BME280;46714;50.118;14.462;2023-01-01T12:12:47;99425.56;;;12.79;72.51
60871;BME280;46714;50.118;14.462;2023-01-01T12:15:29;99430.41;;;12.77;72.22
60871;BME280;46714;50.118;14.462;2023-01-01T12:20:43;99439.69;;;13.02;70.09
60871;BME280;46714;50.118;14.462;2023-01-01T12:23:16;99443.03;;;13.04;69.57
60871;BME280;46714;50.118;14.462;2023-01-01T12:25:43;99439.78;;;13.13;68.85
60871;BME280;46714;50.118;14.462;2023-01-01T12:45:03;99421.53;;;13.51;67.71
60871;BME280;46714;50.118;14.462;2023-01-01T12:56:30;99429.59;;;13.82;65.43
60871;BME280;46714;50.118;14.462;2023-01-01T12:59:04;99424.81;;;13.78;65.76
60871;BME280;46714;50.118;14.462;2023-01-01T13:01:31;99426.63;;;13.84;64.47
60871;BME280;46714;50.118;14.462;2023-01-01T13:04:03;99429.28;;;13.91;64.21
60871;BME280;46714;50.118;14.462;2023-01-01T13:09:18;99421.34;;;14.01;64.50
60871;BME280;46714;50.118;14.462;2023-01-01T13:11:59;99407.31;;;13.97;65.01
60871;BME280;46714;50.118;14.462;2023-01-01T13:14:35;99414.16;;;13.88;65.84
60871;BME280;46714;50.118;14.462;2023-01-01T13:17:02;99418.09;;;13.92;64.65
60871;BME280;46714;50.118;14.462;2023-01-01T13:19:34;99413.47;;;13.93;65.04
60871;BME280;46714;50.118;14.462;2023-01-01T13:28:13;99395.97;;;13.94;64.90
60871;BME280;46714;50.118;14.462;2023-01-01T13:33:17;99385.25;;;13.92;65.24
60871;BME280;46714;50.118;14.462;2023-01-01T13:36:01;99383.69;;;13.85;66.16
60871;BME280;46714;50.118;14.462;2023-01-01T13:46:29;99370.78;;;13.73;65.98
60871;BME280;46714;50.118;14.462;2023-01-01T13:52:00;99369.94;;;13.73;65.99
60871;BME280;46714;50.118;14.462;2023-01-01T14:03:11;99364.72;;;13.53;66.78
60871;BME280;46714;50.118;14.462;2023-01-01T14:05:57;99363.50;;;13.49;66.81
60871;BME280;46714;50.118;14.462;2023-01-01T14:08:31;99367.59;;;13.39;68.03
60871;BME280;46714;50.118;14.462;2023-01-01T14:10:58;99366.69;;;13.27;68.06
60871;BME280;46714;50.118;14.462;2023-01-01T14:13:27;99360.88;;;13.17;68.21
60871;BME280;46714;50.118;14.462;2023-01-01T14:16:03;99367.28;;;13.11;68.98
60871;BME280;46714;50.118;14.462;2023-01-01T14:18:40;99368.16;;;13.05;68.88
60871;BME280;46714;50.118;14.462;2023-01-01T14:21:16;99370.97;;;12.98;69.18
60871;BME280;46714;50.118;14.462;2023-01-01T14:23:45;99381.81;;;12.86;70.23
60871;BME280;46714;50.118;14.462;2023-01-01T14:26:15;99371.75;;;12.80;69.75
60871;BME280;46714;50.118;14.462;2023-01-01T14:28:43;99366.16;;;12.75;70.33
60871;BME280;46714;50.118;14.462;2023-01-01T14:31:10;99367.66;;;12.71;70.52
60871;BME280;46714;50.118;14.462;2023-01-01T14:33:40;99366.34;;;12.73;70.25
60871;BME280;46714;50.118;14.462;2023-01-01T14:36:47;99367.59;;;12.77;69.35
60871;BME280;46714;50.118;14.462;2023-01-01T14:38:58;99372.78;;;12.86;69.05
60871;BME280;46714;50.118;14.462;2023-01-01T14:41:28;99377.22;;;12.80;70.15
60871;BME280;46714;50.118;14.462;2023-01-01T14:46:38;99377.94;;;12.69;70.94
60871;BME280;46714;50.118;14.462;2023-01-01T14:49:08;99377.41;;;12.60;70.21
60871;BME280;46714;50.118;14.462;2023-01-01T14:51:39;99386.66;;;12.59;70.30
60871;BME280;46714;50.118;14.462;2023-01-01T14:54:11;99385.81;;;12.58;70.25
60871;BME280;46714;50.118;14.462;2023-01-01T14:56:45;99388.00;;;12.50;71.21
60871;BME280;46714;50.118;14.462;2023-01-01T14:59:14;99398.91;;;12.50;70.57
60871;BME280;46714;50.118;14.462;2023-01-01T15:04:46;99398.00;;;12.31;71.62
60871;BME280;46714;50.118;14.462;2023-01-01T15:09:46;99404.09;;;12.33;70.63
60871;BME280;46714;50.118;14.462;2023-01-01T15:12:13;99412.09;;;12.28;71.83
60871;BME280;46714;50.118;14.462;2023-01-01T15:14:42;99417.19;;;12.18;72.22
60871;BME280;46714;50.118;14.462;2023-01-01T15:17:16;99428.78;;;12.06;73.00